This is the latest recevied weather packets stored in our database for station/object KV4OP. If no packets are shown the sender has not sent any weather packets the latest 10 day(s).
| Time | Temp. | Humidity | Pressure | Rain* | Wind** | Luminosity | Snow |
|---|---|---|---|---|---|---|---|
| 1777409419 | 32.22° C | 53% | 1018.6 hPa | 0 mm | - | - | - |
| 1777409121 | 32.22° C | 54% | 1018.6 hPa | 0 mm | - | - | - |
| 1777408818 | 32.22° C | 52% | 1018.7 hPa | 0 mm | - | - | - |
| 1777408517 | 32.22° C | 52% | 1018.8 hPa | 0 mm | - | - | - |
| 1777408217 | 32.22° C | 52% | 1018.7 hPa | 0 mm | - | - | - |
| 1777407917 | 32.22° C | 51% | 1018.9 hPa | 0 mm | - | - | - |
| 1777407618 | 32.22° C | 52% | 1018.9 hPa | 0 mm | - | - | - |
| 1777407319 | 32.22° C | 52% | 1018.9 hPa | 0 mm | - | - | - |
| 1777407018 | 32.22° C | 51% | 1019 hPa | 0 mm | - | - | - |
| 1777406715 | 32.78° C | 52% | 1019 hPa | 0 mm | - | - | - |
| 1777406415 | 32.22° C | 52% | 1019.2 hPa | 0 mm | - | - | - |
| 1777406117 | 32.22° C | 55% | 1019 hPa | 0 mm | - | - | - |
| 1777405819 | 32.22° C | 54% | 1019.1 hPa | 0 mm | - | - | - |
| 1777405517 | 32.22° C | 54% | 1019.2 hPa | 0 mm | - | - | - |
| 1777405218 | 32.22° C | 53% | 1019.3 hPa | 0 mm | - | - | - |
| 1777404918 | 32.22° C | 53% | 1019.4 hPa | 0 mm | - | - | - |
| 1777404617 | 32.22° C | 52% | 1019.5 hPa | 0 mm | - | - | - |
| 1777404314 | 32.78° C | 52% | 1019.5 hPa | 0 mm | - | - | - |
| 1777404014 | 32.78° C | 54% | 1019.5 hPa | 0 mm | - | - | - |
| 1777403716 | 32.78° C | 51% | 1019.5 hPa | 0 mm | - | - | - |
| 1777403412 | 32.78° C | 50% | 1019.5 hPa | 0 mm | - | - | - |
| 1777403112 | 32.78° C | 51% | 1019.5 hPa | 0 mm | - | - | - |
| 1777402810 | 32.78° C | 51% | 1019.5 hPa | 0 mm | - | - | - |
| 1777402509 | 32.78° C | 50% | 1019.5 hPa | 0 mm | - | - | - |
| 1777402211 | 32.78° C | 50% | 1019.5 hPa | 0 mm | - | - | - |
* Rain latest hour (hover to see other rain measurements)
** Current wind speed in m/s (hover to see current wind gust speed)